EFUT

Utti Air Base Airport

Utti / Valkeala, Finland
METAR EFUT 191650Z AUTO 25008KT CAVOK 20/10 Q1008
Observed Flight Rules
Aug-19 @ 16:50 UTC (24 minutes ago) Visual Flight Rules
Wind Visibility Clouds
250° at 8 knots 10,000+ meters
  • Clear skies
Temperatures Readings
Current 20°C / 68°F
Dewpoint 10°C / 50°F
Humidity 53%
Altimeter 29.76" Hg
Pressure 1008 hPa
Elevation 100
METAR EFUT 191650Z AUTO 25008KT CAVOK 20/10 Q1008
Observed Flight Rules
Aug-19 @ 16:50 UTC
(24 minutes ago)
VFR
Wind Visibility
250° at 8 knots 10,000+ meters
Clouds
  • Clear skies
Temperature Dewpoint
20°C / 68°F 10°C / 50°F
Humidity Altimeter Pressure
53% 29.76" Hg 1008 hPa